Lynch, Kentucky
Current Conditions -  °F | °C
As of 3:35 PM on Thursday 29 Jan 2015 (Local Time) from KLNP Reporting Station
Clear Clear  
Wind Chill: 37°   Ceiling: Unl
Heat Index: 45°   Visibility: 10mi
Dew Point: 30°   Wind: 18mph
Humidity: 57%   Direction: 230°SW
Pressure: 29.95"   Gusts: 29mph
Location:  36.97°N, 82.92°W
Report Text: KLNP 292035Z AUTO 23016G25KT 10SM CLR 07/M01 A2995 RMK AO2
Loading
Personal Weather Stations






























Interactive Weather Map New forecast layout! Learn more

10-Day Weather Forecast

Advertisements
Track Severe Weather on mobile